Time;durP1;ratioP1;P1;durP2;ratioP2;P2;SDS_P1;SDS_P2;PMS_P1;PMS_P2;Temp;Humidity;BMP_temperature;BMP_pressure;BME280_temperature;BME280_humidity;BME280_pressure;Samples;Min_cycle;Max_cycle;Signal;HPM_P1;HPM_P2
2022/11/16 00:00:33;;;;;;;0.20;0.10;;;;;;;;;;5002919;28;20041;-79
2022/11/16 00:03:03;;;;;;;0.20;0.10;;;;;;;;;;5020952;28;20034;-80
2022/11/16 00:05:30;;;;;;;0.20;0.10;;;;;;;;;;4998539;28;20034;-79
2022/11/16 00:07:57;;;;;;;0.20;0.10;;;;;;;;;;4985708;28;20455;-79
2022/11/16 00:10:23;;;;;;;0.20;0.10;;;;;;;;;;4996980;28;20046;-80
2022/11/16 00:12:49;;;;;;;0.20;0.10;;;;;;;;;;5004441;28;20775;-79
2022/11/16 00:15:15;;;;;;;0.20;0.10;;;;;;;;;;4987554;28;20117;-80
2022/11/16 00:17:41;;;;;;;0.20;0.10;;;;;;;;;;5002430;28;20050;-80
2022/11/16 00:20:08;;;;;;;0.20;0.10;;;;;;;;;;5003178;28;20317;-79
2022/11/16 00:22:34;;;;;;;0.20;0.10;;;;;;;;;;5002459;28;20041;-80
2022/11/16 00:25:00;;;;;;;0.20;0.10;;;;;;;;;;5018520;28;20116;-80
2022/11/16 00:27:26;;;;;;;0.20;0.10;;;;;;;;;;5013551;28;20779;-80
2022/11/16 00:29:52;;;;;;;0.20;0.10;;;;;;;;;;5002555;28;20030;-80
2022/11/16 00:32:18;;;;;;;0.20;0.10;;;;;;;;;;5002932;28;20106;-80
2022/11/16 00:34:44;;;;;;;0.20;0.10;;;;;;;;;;5002652;28;20112;-80
2022/11/16 00:37:10;;;;;;;0.20;0.10;;;;;;;;;;5001584;28;20037;-80
2022/11/16 00:39:36;;;;;;;0.20;0.10;;;;;;;;;;4984185;28;20052;-80
2022/11/16 00:42:02;;;;;;;0.20;0.10;;;;;;;;;;5002128;28;20137;-80
2022/11/16 00:44:28;;;;;;;0.20;0.10;;;;;;;;;;4986123;28;20037;-79
2022/11/16 00:46:54;;;;;;;0.20;0.10;;;;;;;;;;5004735;28;20045;-80
2022/11/16 00:49:20;;;;;;;0.20;0.10;;;;;;;;;;5020237;28;20092;-79
2022/11/16 00:51:46;;;;;;;0.20;0.10;;;;;;;;;;5001335;28;20037;-79
2022/11/16 00:54:12;;;;;;;0.20;0.10;;;;;;;;;;5000986;28;20042;-80
2022/11/16 00:56:38;;;;;;;0.20;0.10;;;;;;;;;;4986662;28;20128;-80
2022/11/16 00:59:04;;;;;;;0.20;0.10;;;;;;;;;;5001256;28;20034;-80
2022/11/16 01:01:30;;;;;;;0.20;0.10;;;;;;;;;;5021437;28;20540;-80
2022/11/16 01:03:56;;;;;;;0.20;0.10;;;;;;;;;;4986089;28;20050;-79
2022/11/16 01:06:22;;;;;;;0.20;0.10;;;;;;;;;;5018543;28;20645;-80
2022/11/16 01:08:49;;;;;;;0.30;0.30;;;;;;;;;;5001377;28;20037;-80
2022/11/16 01:14:02;;;;;;;0.20;0.10;;;;;;;;;;4998615;28;20125;-80
2022/11/16 01:16:28;;;;;;;0.20;0.10;;;;;;;;;;5000769;28;20117;-78
2022/11/16 01:18:54;;;;;;;0.20;0.10;;;;;;;;;;5019099;28;20045;-80
2022/11/16 01:21:20;;;;;;;0.20;0.10;;;;;;;;;;5003841;28;20468;-78
2022/11/16 01:23:47;;;;;;;0.20;0.10;;;;;;;;;;5007775;28;20037;-80
2022/11/16 01:26:13;;;;;;;0.20;0.10;;;;;;;;;;5005031;28;20506;-80
2022/11/16 01:28:39;;;;;;;0.20;0.10;;;;;;;;;;5006274;28;20045;-80
2022/11/16 01:31:05;;;;;;;0.20;0.10;;;;;;;;;;4990478;28;20404;-80
2022/11/16 01:33:31;;;;;;;0.20;0.10;;;;;;;;;;5027874;28;20040;-80
2022/11/16 01:35:57;;;;;;;0.30;0.20;;;;;;;;;;5010270;28;20089;-80
2022/11/16 01:38:23;;;;;;;0.30;0.30;;;;;;;;;;5010882;28;20073;-80
2022/11/16 01:40:49;;;;;;;0.20;0.10;;;;;;;;;;5018762;28;20342;-80
2022/11/16 01:43:17;;;;;;;0.20;0.10;;;;;;;;;;5014452;28;20064;-80
2022/11/16 01:45:43;;;;;;;0.20;0.10;;;;;;;;;;4995168;28;20041;-80
2022/11/16 01:48:11;;;;;;;0.20;0.10;;;;;;;;;;5013660;28;20046;-80
2022/11/16 01:50:37;;;;;;;0.20;0.10;;;;;;;;;;5010169;28;20066;-79
2022/11/16 01:53:04;;;;;;;0.20;0.10;;;;;;;;;;5002591;28;20061;-79
2022/11/16 01:55:32;;;;;;;0.20;0.10;;;;;;;;;;5014629;28;20030;-80
2022/11/16 01:57:58;;;;;;;0.20;0.10;;;;;;;;;;5008737;28;20459;-80
2022/11/16 02:00:25;;;;;;;0.20;0.10;;;;;;;;;;5023675;28;20045;-79
2022/11/16 02:02:51;;;;;;;0.20;0.10;;;;;;;;;;5021029;28;20073;-79
2022/11/16 02:05:19;;;;;;;0.20;0.10;;;;;;;;;;5004222;28;20084;-79
2022/11/16 02:10:41;;;;;;;0.20;0.10;;;;;;;;;;5004911;28;20046;-79
2022/11/16 02:13:07;;;;;;;0.20;0.10;;;;;;;;;;5021880;28;20076;-80
2022/11/16 02:15:33;;;;;;;0.20;0.10;;;;;;;;;;5006317;28;20049;-80
2022/11/16 02:17:59;;;;;;;0.20;0.10;;;;;;;;;;5017973;28;20068;-79
2022/11/16 02:20:25;;;;;;;0.20;0.10;;;;;;;;;;5022330;28;20029;-79
2022/11/16 02:23:14;;;;;;;0.20;0.10;;;;;;;;;;5003912;28;20038;-79
2022/11/16 02:25:43;;;;;;;0.20;0.10;;;;;;;;;;5003645;28;20562;-80
2022/11/16 02:28:19;;;;;;;0.20;0.10;;;;;;;;;;5021212;28;20082;-80
2022/11/16 02:30:48;;;;;;;0.20;0.10;;;;;;;;;;5005895;28;20899;-80
2022/11/16 02:33:17;;;;;;;0.20;0.10;;;;;;;;;;4986650;28;20061;-79
2022/11/16 02:35:49;;;;;;;0.20;0.10;;;;;;;;;;5007841;28;20447;-80
2022/11/16 02:41:12;;;;;;;0.30;0.20;;;;;;;;;;5030239;28;20115;-85
2022/11/16 02:43:43;;;;;;;0.20;0.10;;;;;;;;;;5033027;28;20034;-84
2022/11/16 02:46:12;;;;;;;0.20;0.10;;;;;;;;;;5023631;28;20037;-83
2022/11/16 02:48:42;;;;;;;0.20;0.10;;;;;;;;;;5026754;28;20041;-85
2022/11/16 02:51:08;;;;;;;0.20;0.10;;;;;;;;;;5032970;28;20179;-84
2022/11/16 02:53:38;;;;;;;0.20;0.20;;;;;;;;;;5019641;28;20040;-83
2022/11/16 02:56:04;;;;;;;0.20;0.10;;;;;;;;;;5031876;28;20034;-83
2022/11/16 02:58:31;;;;;;;0.20;0.10;;;;;;;;;;5034032;28;20037;-84
2022/11/16 03:01:14;;;;;;;0.20;0.10;;;;;;;;;;5003123;28;20119;-82
2022/11/16 03:03:48;;;;;;;0.20;0.10;;;;;;;;;;5028757;28;20546;-84
2022/11/16 03:06:17;;;;;;;0.20;0.10;;;;;;;;;;5035297;28;20076;-84
2022/11/16 03:08:46;;;;;;;0.20;0.10;;;;;;;;;;5028754;28;20067;-84
2022/11/16 03:13:59;;;;;;;0.20;0.10;;;;;;;;;;5020327;28;20104;-86
2022/11/16 03:16:27;;;;;;;0.20;0.10;;;;;;;;;;5016148;28;20044;-85
2022/11/16 03:18:54;;;;;;;0.20;0.10;;;;;;;;;;5034820;28;20115;-87
2022/11/16 03:21:39;;;;;;;0.20;0.10;;;;;;;;;;5020859;28;20186;-86
2022/11/16 03:24:05;;;;;;;0.20;0.10;;;;;;;;;;5032967;28;20049;-86
2022/11/16 03:26:35;;;;;;;0.20;0.20;;;;;;;;;;5010026;28;20041;-87
2022/11/16 03:29:05;;;;;;;0.20;0.10;;;;;;;;;;5025718;28;20033;-86
2022/11/16 03:31:38;;;;;;;0.20;0.10;;;;;;;;;;5017822;28;20036;-87
2022/11/16 03:34:07;;;;;;;0.20;0.10;;;;;;;;;;5052434;28;20487;-86
2022/11/16 03:36:34;;;;;;;0.20;0.03;;;;;;;;;;5018794;28;20098;-87
2022/11/16 03:39:03;;;;;;;0.20;0.10;;;;;;;;;;5031230;28;20043;-86
2022/11/16 03:41:30;;;;;;;0.20;0.10;;;;;;;;;;5023409;28;20486;-85
2022/11/16 03:43:57;;;;;;;0.20;0.10;;;;;;;;;;5024352;28;20041;-87
2022/11/16 03:46:23;;;;;;;0.20;0.10;;;;;;;;;;5017095;28;20517;-87
2022/11/16 03:48:55;;;;;;;0.20;0.10;;;;;;;;;;5023168;28;20060;-87
2022/11/16 03:51:21;;;;;;;0.20;0.10;;;;;;;;;;5029520;28;20044;-86
2022/11/16 03:53:47;;;;;;;0.20;0.10;;;;;;;;;;5021825;28;20049;-87
2022/11/16 03:56:13;;;;;;;0.20;0.10;;;;;;;;;;5001279;28;20040;-86
2022/11/16 03:58:39;;;;;;;0.20;0.10;;;;;;;;;;5028345;28;20052;-87
2022/11/16 04:01:05;;;;;;;0.20;0.10;;;;;;;;;;5009797;28;20068;-86
2022/11/16 04:03:31;;;;;;;0.20;0.10;;;;;;;;;;5019382;28;20033;-85
2022/11/16 04:25:41;;;;;;;0.20;0.10;;;;;;;;;;5020844;28;20104;-86
2022/11/16 04:28:13;;;;;;;0.20;0.10;;;;;;;;;;5029561;28;20092;-85
2022/11/16 04:39:20;;;;;;;0.20;0.10;;;;;;;;;;5036242;28;20045;-85
2022/11/16 04:47:19;;;;;;;0.20;0.10;;;;;;;;;;5031844;28;20328;-86
2022/11/16 04:49:45;;;;;;;0.20;0.10;;;;;;;;;;5018470;28;20037;-85
2022/11/16 04:52:11;;;;;;;0.20;0.10;;;;;;;;;;5018851;28;20029;-87
2022/11/16 04:54:39;;;;;;;0.20;0.10;;;;;;;;;;5017827;28;20064;-85
2022/11/16 04:57:05;;;;;;;0.20;0.10;;;;;;;;;;5009078;28;20041;-86
2022/11/16 04:59:31;;;;;;;0.20;0.10;;;;;;;;;;5017944;28;20048;-86
2022/11/16 05:02:07;;;;;;;0.20;0.10;;;;;;;;;;5007805;28;20128;-86
2022/11/16 05:04:33;;;;;;;0.20;0.10;;;;;;;;;;5025288;28;20080;-87
2022/11/16 05:06:59;;;;;;;0.20;0.10;;;;;;;;;;5016190;28;20158;-87
2022/11/16 05:09:25;;;;;;;0.20;0.10;;;;;;;;;;5022367;28;20034;-86
2022/11/16 05:11:51;;;;;;;0.20;0.10;;;;;;;;;;5003495;28;20392;-85
2022/11/16 05:14:17;;;;;;;0.20;0.10;;;;;;;;;;5009997;28;20048;-86
2022/11/16 05:16:43;;;;;;;0.20;0.10;;;;;;;;;;5002794;28;20087;-85
2022/11/16 05:21:54;;;;;;;0.20;0.10;;;;;;;;;;5016579;28;20459;-85
2022/11/16 05:24:32;;;;;;;0.20;0.10;;;;;;;;;;5024611;28;20431;-86
2022/11/16 05:26:59;;;;;;;0.20;0.10;;;;;;;;;;5032478;28;20048;-85
2022/11/16 05:29:25;;;;;;;0.20;0.10;;;;;;;;;;5017664;28;20041;-87
2022/11/16 05:31:51;;;;;;;0.20;0.10;;;;;;;;;;5033892;28;20032;-85
2022/11/16 05:34:17;;;;;;;0.20;0.10;;;;;;;;;;5020841;28;20112;-86
2022/11/16 05:36:43;;;;;;;0.20;0.10;;;;;;;;;;5026709;28;20037;-84
2022/11/16 05:39:10;;;;;;;0.20;0.10;;;;;;;;;;5019930;28;20077;-86
2022/11/16 05:41:36;;;;;;;0.20;0.10;;;;;;;;;;5036633;28;20036;-87
2022/11/16 05:44:02;;;;;;;0.20;0.10;;;;;;;;;;5008188;28;20041;-86
2022/11/16 05:46:28;;;;;;;0.20;0.10;;;;;;;;;;5021557;28;20029;-84
2022/11/16 05:48:54;;;;;;;0.20;0.10;;;;;;;;;;5019192;28;20083;-86
2022/11/16 05:51:20;;;;;;;0.20;0.10;;;;;;;;;;5002980;28;20040;-86
2022/11/16 05:53:48;;;;;;;0.20;0.10;;;;;;;;;;5005615;28;20044;-86
2022/11/16 05:56:14;;;;;;;0.20;0.10;;;;;;;;;;5030701;28;20052;-87
2022/11/16 05:58:41;;;;;;;0.20;0.10;;;;;;;;;;5037014;28;20697;-85
2022/11/16 06:01:07;;;;;;;0.20;0.10;;;;;;;;;;5035687;28;20041;-87
2022/11/16 06:03:35;;;;;;;0.20;0.10;;;;;;;;;;5025728;28;20446;-86
2022/11/16 06:06:01;;;;;;;0.20;0.10;;;;;;;;;;5008362;28;20388;-86
2022/11/16 06:08:27;;;;;;;0.20;0.10;;;;;;;;;;5020416;28;20120;-85
2022/11/16 06:10:53;;;;;;;0.20;0.10;;;;;;;;;;5035401;28;20048;-84
2022/11/16 06:13:19;;;;;;;0.30;0.20;;;;;;;;;;5030621;28;20548;-85
2022/11/16 06:15:45;;;;;;;0.20;0.10;;;;;;;;;;5026215;28;20106;-86
2022/11/16 06:18:12;;;;;;;0.30;0.20;;;;;;;;;;5036984;28;20040;-87
2022/11/16 06:20:38;;;;;;;0.20;0.10;;;;;;;;;;5042084;28;20042;-84
2022/11/16 06:23:05;;;;;;;0.20;0.10;;;;;;;;;;5033107;28;20469;-87
2022/11/16 06:25:31;;;;;;;0.20;0.10;;;;;;;;;;5016185;28;20052;-85
2022/11/16 06:28:00;;;;;;;0.28;0.20;;;;;;;;;;5024293;28;20483;-86
2022/11/16 06:30:27;;;;;;;0.20;0.10;;;;;;;;;;5024003;28;20042;-85
2022/11/16 06:32:53;;;;;;;0.20;0.10;;;;;;;;;;5041138;28;20063;-84
2022/11/16 06:35:19;;;;;;;0.20;0.10;;;;;;;;;;5024211;28;20460;-84
2022/11/16 06:37:45;;;;;;;0.20;0.10;;;;;;;;;;5024641;28;20039;-86
2022/11/16 06:40:11;;;;;;;0.20;0.10;;;;;;;;;;5023779;28;20119;-83
2022/11/16 06:42:37;;;;;;;0.20;0.10;;;;;;;;;;5046095;28;20379;-86
2022/11/16 06:45:03;;;;;;;0.20;0.10;;;;;;;;;;5028628;28;20037;-85
2022/11/16 06:47:30;;;;;;;0.20;0.10;;;;;;;;;;5018716;28;20053;-86
2022/11/16 06:49:56;;;;;;;0.20;0.10;;;;;;;;;;5022587;28;20037;-89
2022/11/16 06:52:22;;;;;;;0.20;0.10;;;;;;;;;;5005535;28;20041;-85
2022/11/16 06:54:48;;;;;;;0.20;0.10;;;;;;;;;;5022132;28;20120;-85
2022/11/16 06:57:14;;;;;;;0.20;0.10;;;;;;;;;;5023166;28;20037;-85
2022/11/16 06:59:40;;;;;;;0.20;0.10;;;;;;;;;;5018062;28;20036;-85
2022/11/16 07:02:06;;;;;;;0.20;0.10;;;;;;;;;;5022675;28;20132;-86
2022/11/16 07:04:32;;;;;;;0.20;0.10;;;;;;;;;;5025464;28;20045;-84
2022/11/16 07:06:58;;;;;;;0.20;0.10;;;;;;;;;;5028009;28;20037;-85
2022/11/16 07:09:24;;;;;;;0.20;0.10;;;;;;;;;;5005819;28;20041;-85
2022/11/16 07:11:50;;;;;;;0.20;0.10;;;;;;;;;;5008027;28;21715;-85
2022/11/16 07:14:16;;;;;;;0.20;0.20;;;;;;;;;;5038247;28;20040;-84
2022/11/16 07:16:42;;;;;;;0.20;0.10;;;;;;;;;;5040765;28;20387;-85
2022/11/16 07:19:09;;;;;;;0.20;0.10;;;;;;;;;;5018867;28;20319;-85
2022/11/16 07:21:36;;;;;;;0.20;0.10;;;;;;;;;;5041095;28;20487;-84
2022/11/16 07:24:02;;;;;;;0.20;0.10;;;;;;;;;;5022871;28;20542;-84
2022/11/16 07:26:30;;;;;;;0.20;0.10;;;;;;;;;;5040398;28;20037;-84
2022/11/16 07:28:59;;;;;;;0.20;0.10;;;;;;;;;;5024730;28;20126;-84
2022/11/16 07:31:25;;;;;;;0.20;0.10;;;;;;;;;;5035181;28;20252;-85
2022/11/16 07:33:52;;;;;;;0.20;0.10;;;;;;;;;;5028472;28;20479;-85
2022/11/16 07:36:18;;;;;;;0.20;0.10;;;;;;;;;;5035852;28;20037;-84
2022/11/16 07:38:44;;;;;;;0.20;0.10;;;;;;;;;;5022210;28;20051;-86
2022/11/16 07:41:12;;;;;;;0.20;0.10;;;;;;;;;;5029130;28;20033;-86
2022/11/16 07:43:39;;;;;;;0.20;0.10;;;;;;;;;;5034150;28;20566;-86
2022/11/16 07:46:15;;;;;;;0.20;0.10;;;;;;;;;;5021970;28;20570;-83
2022/11/16 07:48:44;;;;;;;0.28;0.20;;;;;;;;;;5034289;28;20041;-84
2022/11/16 07:51:12;;;;;;;0.30;0.20;;;;;;;;;;5032460;28;20037;-83
2022/11/16 07:53:38;;;;;;;0.20;0.10;;;;;;;;;;5017767;28;20033;-84
2022/11/16 07:56:04;;;;;;;0.20;0.10;;;;;;;;;;5036617;28;20069;-83
2022/11/16 07:58:32;;;;;;;0.20;0.10;;;;;;;;;;5020255;28;20045;-85
2022/11/16 08:01:10;;;;;;;0.20;0.10;;;;;;;;;;5031432;28;20049;-83
2022/11/16 08:03:36;;;;;;;0.20;0.10;;;;;;;;;;5017324;28;20041;-83
2022/11/16 08:06:04;;;;;;;0.20;0.10;;;;;;;;;;5035373;28;20491;-83
2022/11/16 08:08:30;;;;;;;0.20;0.10;;;;;;;;;;5020861;28;20064;-83
2022/11/16 08:11:00;;;;;;;0.20;0.10;;;;;;;;;;5017523;28;20273;-83
2022/11/16 08:13:26;;;;;;;0.20;0.10;;;;;;;;;;5035162;28;20136;-84
2022/11/16 08:15:52;;;;;;;0.40;0.40;;;;;;;;;;5036729;28;20044;-82
2022/11/16 08:18:19;;;;;;;0.20;0.10;;;;;;;;;;5020389;28;20048;-83
2022/11/16 08:20:45;;;;;;;0.20;0.10;;;;;;;;;;5020003;28;20045;-84
2022/11/16 08:23:11;;;;;;;0.20;0.10;;;;;;;;;;5021976;28;20102;-84
2022/11/16 08:25:37;;;;;;;0.20;0.10;;;;;;;;;;5036952;28;20487;-83
2022/11/16 08:28:03;;;;;;;0.20;0.10;;;;;;;;;;5034310;28;20546;-84
2022/11/16 08:30:29;;;;;;;0.20;0.10;;;;;;;;;;5017923;28;20157;-85
2022/11/16 08:32:55;;;;;;;0.20;0.10;;;;;;;;;;5024149;28;20095;-84
2022/11/16 08:35:22;;;;;;;0.20;0.10;;;;;;;;;;5002361;28;20592;-84
2022/11/16 08:37:48;;;;;;;0.20;0.10;;;;;;;;;;5008815;28;20068;-84
2022/11/16 08:40:14;;;;;;;0.20;0.10;;;;;;;;;;5031387;22;20051;-86
2022/11/16 08:42:40;;;;;;;0.20;0.10;;;;;;;;;;5004978;28;20128;-86
2022/11/16 08:45:06;;;;;;;0.20;0.10;;;;;;;;;;5004902;28;20045;-85
2022/11/16 08:47:32;;;;;;;0.20;0.10;;;;;;;;;;5004293;28;20037;-85
2022/11/16 08:49:59;;;;;;;0.20;0.10;;;;;;;;;;5006767;28;20047;-85
2022/11/16 08:52:25;;;;;;;0.20;0.10;;;;;;;;;;5004571;28;20088;-85
2022/11/16 08:54:51;;;;;;;0.20;0.10;;;;;;;;;;4988018;28;20392;-86
2022/11/16 08:57:17;;;;;;;0.20;0.10;;;;;;;;;;5007649;28;20041;-85
2022/11/16 08:59:43;;;;;;;0.20;0.10;;;;;;;;;;5021120;28;20127;-85
2022/11/16 09:02:09;;;;;;;0.20;0.10;;;;;;;;;;5000395;28;20131;-85
2022/11/16 09:04:35;;;;;;;0.20;0.10;;;;;;;;;;5017711;28;20075;-84
2022/11/16 09:07:01;;;;;;;0.20;0.10;;;;;;;;;;4988840;28;20037;-85
2022/11/16 09:09:27;;;;;;;0.20;0.10;;;;;;;;;;5003645;28;20037;-85
2022/11/16 09:11:54;;;;;;;0.20;0.10;;;;;;;;;;5004084;28;20103;-85
2022/11/16 09:14:20;;;;;;;0.20;0.10;;;;;;;;;;5005538;28;20060;-84
2022/11/16 09:16:46;;;;;;;0.20;0.10;;;;;;;;;;5006467;28;20381;-84
2022/11/16 09:19:13;;;;;;;0.20;0.10;;;;;;;;;;5004944;28;20034;-85
2022/11/16 09:21:40;;;;;;;0.20;0.10;;;;;;;;;;5021048;28;20112;-83
2022/11/16 09:24:06;;;;;;;0.20;0.10;;;;;;;;;;5003964;28;20128;-83
2022/11/16 09:26:32;;;;;;;0.30;0.20;;;;;;;;;;5019791;28;20033;-83
2022/11/16 09:28:59;;;;;;;0.20;0.20;;;;;;;;;;5003991;28;20045;-82
2022/11/16 09:31:29;;;;;;;0.20;0.10;;;;;;;;;;5018655;28;20049;-83
2022/11/16 09:33:57;;;;;;;0.20;0.10;;;;;;;;;;5001735;28;20042;-83
2022/11/16 09:36:23;;;;;;;0.20;0.10;;;;;;;;;;5019652;28;20083;-83
2022/11/16 09:38:49;;;;;;;0.20;0.10;;;;;;;;;;5005330;28;20037;-82
2022/11/16 09:41:38;;;;;;;0.20;0.10;;;;;;;;;;5005591;28;20133;-83
2022/11/16 09:44:04;;;;;;;0.20;0.10;;;;;;;;;;5024440;28;20076;-82
2022/11/16 09:46:36;;;;;;;0.43;0.43;;;;;;;;;;5010074;28;20388;-82
2022/11/16 09:49:04;;;;;;;0.20;0.10;;;;;;;;;;5024956;28;20052;-84
2022/11/16 09:51:33;;;;;;;0.20;0.10;;;;;;;;;;5023998;28;20441;-83
2022/11/16 09:54:07;;;;;;;0.20;0.10;;;;;;;;;;5008628;28;20041;-82
2022/11/16 09:56:35;;;;;;;0.20;0.10;;;;;;;;;;5003723;28;20499;-83
2022/11/16 09:59:07;;;;;;;0.20;0.10;;;;;;;;;;5005643;28;20041;-83
2022/11/16 10:01:36;;;;;;;0.20;0.10;;;;;;;;;;5005355;28;20049;-84
2022/11/16 10:04:14;;;;;;;0.32;0.25;;;;;;;;;;5023645;28;20112;-82
2022/11/16 10:06:40;;;;;;;0.20;0.10;;;;;;;;;;5021667;28;20469;-85
2022/11/16 10:09:09;;;;;;;0.20;0.10;;;;;;;;;;5021193;28;20065;-84
2022/11/16 10:11:42;;;;;;;0.20;0.10;;;;;;;;;;5006983;28;20523;-84
2022/11/16 10:14:34;;;;;;;0.20;0.10;;;;;;;;;;5021252;28;20496;-85
2022/11/16 10:17:19;;;;;;;0.20;0.10;;;;;;;;;;5022395;28;20037;-83
2022/11/16 10:19:53;;;;;;;0.20;0.10;;;;;;;;;;5020528;28;20064;-84
2022/11/16 10:22:32;;;;;;;0.30;0.10;;;;;;;;;;5024630;28;20042;-84
2022/11/16 10:24:59;;;;;;;0.20;0.10;;;;;;;;;;5026632;28;20034;-84
2022/11/16 10:27:44;;;;;;;0.20;0.10;;;;;;;;;;5023127;28;20038;-84
2022/11/16 10:30:18;;;;;;;0.20;0.10;;;;;;;;;;5016755;28;20700;-85
2022/11/16 10:32:52;;;;;;;0.20;0.10;;;;;;;;;;5042185;28;20038;-83
2022/11/16 10:35:25;;;;;;;0.20;0.10;;;;;;;;;;5023763;28;20104;-84
2022/11/16 10:37:51;;;;;;;0.20;0.10;;;;;;;;;;5007769;28;20046;-82
2022/11/16 10:40:28;;;;;;;0.20;0.10;;;;;;;;;;5024113;28;20070;-83
2022/11/16 10:42:59;;;;;;;0.20;0.10;;;;;;;;;;5010846;28;20466;-84
2022/11/16 10:45:38;;;;;;;0.20;0.10;;;;;;;;;;5007039;28;20049;-83
2022/11/16 10:48:14;;;;;;;0.20;0.10;;;;;;;;;;5026557;28;20093;-84
2022/11/16 10:50:43;;;;;;;0.20;0.10;;;;;;;;;;5010155;28;20125;-83
2022/11/16 10:53:14;;;;;;;0.20;0.10;;;;;;;;;;5026940;28;20064;-84
2022/11/16 10:55:40;;;;;;;0.20;0.10;;;;;;;;;;5023614;28;20041;-82
2022/11/16 10:58:06;;;;;;;0.20;0.20;;;;;;;;;;5023914;28;20080;-82
2022/11/16 11:00:37;;;;;;;0.40;0.40;;;;;;;;;;5024656;28;20590;-84
2022/11/16 11:03:03;;;;;;;0.30;0.30;;;;;;;;;;5006644;28;20446;-82
2022/11/16 11:05:30;;;;;;;0.20;0.10;;;;;;;;;;5009234;28;20144;-81
2022/11/16 11:08:00;;;;;;;0.20;0.10;;;;;;;;;;5042052;28;20073;-83
2022/11/16 11:10:26;;;;;;;0.20;0.10;;;;;;;;;;5024595;28;20045;-82
2022/11/16 11:13:04;;;;;;;0.20;0.10;;;;;;;;;;5041026;28;20073;-81
2022/11/16 11:15:31;;;;;;;0.20;0.10;;;;;;;;;;5023337;28;20034;-82
2022/11/16 11:18:15;;;;;;;0.20;0.10;;;;;;;;;;5042342;28;20131;-81
2022/11/16 11:20:43;;;;;;;0.20;0.10;;;;;;;;;;5020172;28;20132;-82
2022/11/16 11:23:12;;;;;;;0.20;0.10;;;;;;;;;;5005182;28;20064;-82
2022/11/16 11:25:42;;;;;;;0.20;0.10;;;;;;;;;;5026382;28;20061;-81
2022/11/16 11:28:17;;;;;;;0.20;0.10;;;;;;;;;;5027528;28;20491;-82
2022/11/16 11:30:54;;;;;;;0.20;0.10;;;;;;;;;;5015131;28;20117;-81
2022/11/16 11:33:22;;;;;;;0.20;0.10;;;;;;;;;;5026158;28;20038;-81
2022/11/16 11:36:08;;;;;;;0.20;0.10;;;;;;;;;;5024991;28;20041;-82
2022/11/16 11:38:35;;;;;;;0.20;0.20;;;;;;;;;;5025304;28;20047;-82
2022/11/16 11:41:06;;;;;;;0.20;0.10;;;;;;;;;;5025840;28;20538;-80
2022/11/16 11:43:36;;;;;;;0.20;0.10;;;;;;;;;;5010834;28;20180;-81
2022/11/16 11:46:02;;;;;;;0.20;0.10;;;;;;;;;;5023696;28;20124;-80
2022/11/16 11:48:28;;;;;;;0.20;0.10;;;;;;;;;;5006560;28;20056;-80
2022/11/16 11:51:10;;;;;;;0.20;0.15;;;;;;;;;;5023229;28;20041;-81
2022/11/16 11:53:46;;;;;;;0.20;0.10;;;;;;;;;;5021801;28;20518;-82
2022/11/16 11:56:13;;;;;;;0.20;0.10;;;;;;;;;;5024258;28;20291;-81
2022/11/16 11:58:40;;;;;;;0.20;0.10;;;;;;;;;;5022699;28;20096;-81
2022/11/16 12:01:11;;;;;;;0.20;0.10;;;;;;;;;;4990768;28;20404;-80
2022/11/16 12:03:56;;;;;;;0.20;0.10;;;;;;;;;;5028791;28;20041;-81
2022/11/16 12:06:22;;;;;;;0.20;0.10;;;;;;;;;;5024047;28;20042;-78
2022/11/16 12:08:51;;;;;;;0.20;0.10;;;;;;;;;;5022552;28;20131;-79
2022/11/16 12:11:32;;;;;;;0.20;0.10;;;;;;;;;;5018579;28;20407;-81
2022/11/16 12:13:58;;;;;;;0.20;0.10;;;;;;;;;;5008963;28;20045;-82
2022/11/16 12:16:27;;;;;;;0.20;0.10;;;;;;;;;;5020746;28;20404;-80
2022/11/16 12:19:02;;;;;;;0.20;0.10;;;;;;;;;;5040325;28;20052;-80
2022/11/16 12:21:47;;;;;;;0.20;0.10;;;;;;;;;;5023389;28;20045;-81
2022/11/16 12:24:22;;;;;;;0.20;0.10;;;;;;;;;;5022292;28;20041;-81
2022/11/16 12:27:01;;;;;;;0.20;0.10;;;;;;;;;;5024486;28;20396;-79
2022/11/16 12:29:46;;;;;;;0.20;0.10;;;;;;;;;;5022898;28;20117;-81
2022/11/16 12:32:45;;;;;;;0.20;0.10;;;;;;;;;;5013070;28;20049;-80
2022/11/16 12:35:21;;;;;;;0.20;0.10;;;;;;;;;;4993402;28;20049;-79
2022/11/16 12:38:01;;;;;;;0.20;0.10;;;;;;;;;;5026966;28;20036;-80
2022/11/16 12:40:27;;;;;;;0.20;0.10;;;;;;;;;;5027051;28;20051;-81
2022/11/16 12:43:01;;;;;;;0.20;0.10;;;;;;;;;;5023474;28;20045;-80
2022/11/16 12:45:27;;;;;;;0.20;0.10;;;;;;;;;;5024767;28;20037;-81
2022/11/16 12:47:56;;;;;;;0.20;0.10;;;;;;;;;;5010802;28;20033;-80
2022/11/16 12:50:36;;;;;;;0.20;0.10;;;;;;;;;;5010845;28;20514;-81
2022/11/16 12:53:16;;;;;;;0.20;0.10;;;;;;;;;;5029569;28;20034;-81
2022/11/16 12:55:51;;;;;;;0.20;0.10;;;;;;;;;;5011684;28;20052;-81
2022/11/16 12:58:23;;;;;;;0.20;0.10;;;;;;;;;;5026614;28;20033;-80
2022/11/16 13:00:55;;;;;;;0.20;0.10;;;;;;;;;;5008929;28;20037;-80
2022/11/16 13:03:41;;;;;;;0.20;0.10;;;;;;;;;;5028052;28;20064;-82
2022/11/16 13:06:14;;;;;;;0.20;0.10;;;;;;;;;;5026951;28;20088;-79
2022/11/16 13:08:48;;;;;;;0.20;0.10;;;;;;;;;;5024019;28;20031;-81
2022/11/16 13:11:15;;;;;;;0.20;0.10;;;;;;;;;;5026178;28;20160;-79
2022/11/16 13:13:43;;;;;;;0.20;0.10;;;;;;;;;;5007963;28;20077;-79
2022/11/16 13:16:10;;;;;;;0.20;0.10;;;;;;;;;;5022121;28;20106;-80
2022/11/16 13:18:38;;;;;;;0.20;0.10;;;;;;;;;;5013324;28;20094;-80
2022/11/16 13:21:12;;;;;;;0.20;0.10;;;;;;;;;;5030788;28;20037;-82
2022/11/16 13:23:38;;;;;;;0.20;0.10;;;;;;;;;;5025629;28;20495;-80
2022/11/16 13:26:09;;;;;;;0.20;0.10;;;;;;;;;;5015788;28;20045;-79
2022/11/16 13:28:59;;;;;;;0.20;0.10;;;;;;;;;;5027752;28;20060;-80
2022/11/16 13:31:32;;;;;;;0.20;0.10;;;;;;;;;;5027849;28;20515;-82
2022/11/16 13:34:03;;;;;;;0.20;0.10;;;;;;;;;;5005419;28;20561;-82
2022/11/16 13:36:32;;;;;;;0.20;0.10;;;;;;;;;;5026763;28;20383;-81
2022/11/16 13:38:58;;;;;;;0.20;0.10;;;;;;;;;;5027399;28;20079;-80
2022/11/16 13:41:37;;;;;;;0.20;0.10;;;;;;;;;;5012714;28;20053;-79
2022/11/16 13:44:19;;;;;;;0.20;0.10;;;;;;;;;;5045014;28;20566;-80
2022/11/16 13:47:05;;;;;;;0.20;0.10;;;;;;;;;;5027664;28;20087;-81
2022/11/16 13:49:33;;;;;;;0.20;0.10;;;;;;;;;;5029366;28;20046;-81
2022/11/16 13:52:02;;;;;;;0.20;0.10;;;;;;;;;;5041017;28;20841;-81
2022/11/16 13:54:48;;;;;;;0.20;0.10;;;;;;;;;;5025517;28;20050;-82
2022/11/16 13:57:25;;;;;;;0.20;0.10;;;;;;;;;;5017336;28;20041;-80
2022/11/16 14:00:00;;;;;;;0.20;0.10;;;;;;;;;;5011600;28;20045;-80
2022/11/16 14:02:36;;;;;;;0.20;0.10;;;;;;;;;;5013590;28;20045;-82
2022/11/16 14:05:05;;;;;;;0.20;0.10;;;;;;;;;;5031742;28;20037;-81
2022/11/16 14:07:36;;;;;;;0.20;0.10;;;;;;;;;;5028155;28;20554;-80
2022/11/16 14:10:04;;;;;;;0.20;0.10;;;;;;;;;;5029728;28;20389;-81
2022/11/16 14:12:50;;;;;;;0.20;0.10;;;;;;;;;;5029485;28;20380;-80
2022/11/16 14:15:18;;;;;;;0.20;0.10;;;;;;;;;;5010564;28;20048;-79
2022/11/16 14:17:53;;;;;;;0.20;0.10;;;;;;;;;;5026986;28;20076;-80
2022/11/16 14:20:38;;;;;;;0.20;0.10;;;;;;;;;;5033251;28;20037;-80
2022/11/16 14:23:14;;;;;;;0.20;0.10;;;;;;;;;;5013083;28;20037;-80
2022/11/16 14:25:45;;;;;;;0.20;0.10;;;;;;;;;;5027726;28;20257;-81
2022/11/16 14:28:21;;;;;;;0.20;0.10;;;;;;;;;;5027957;28;20045;-81
2022/11/16 14:31:05;;;;;;;0.20;0.10;;;;;;;;;;5026778;28;20554;-79
2022/11/16 14:33:33;;;;;;;0.20;0.10;;;;;;;;;;5027098;28;20107;-80
2022/11/16 14:35:59;;;;;;;0.20;0.10;;;;;;;;;;5026163;28;20049;-81
2022/11/16 14:38:29;;;;;;;0.20;0.10;;;;;;;;;;5025878;28;20079;-79
2022/11/16 14:40:56;;;;;;;0.20;0.10;;;;;;;;;;5084264;22;20423;-85
2022/11/16 14:43:32;;;;;;;0.20;0.10;;;;;;;;;;5042859;28;20048;-86
2022/11/16 14:46:08;;;;;;;0.20;0.10;;;;;;;;;;5044553;28;20043;-84
2022/11/16 14:48:34;;;;;;;0.20;0.10;;;;;;;;;;5042701;28;20486;-85
2022/11/16 14:51:05;;;;;;;0.25;0.25;;;;;;;;;;5025549;28;20072;-86
2022/11/16 14:53:34;;;;;;;0.20;0.10;;;;;;;;;;5039696;28;20189;-88
2022/11/16 14:56:10;;;;;;;0.20;0.10;;;;;;;;;;5036935;28;20029;-85
2022/11/16 14:58:37;;;;;;;0.20;0.10;;;;;;;;;;5040113;28;20052;-84
2022/11/16 15:01:04;;;;;;;0.20;0.10;;;;;;;;;;5045725;28;20748;-85
2022/11/16 15:03:33;;;;;;;0.20;0.10;;;;;;;;;;5044852;28;20049;-84
2022/11/16 15:06:06;;;;;;;0.20;0.10;;;;;;;;;;5030807;28;20128;-87
2022/11/16 15:08:42;;;;;;;0.20;0.10;;;;;;;;;;5024936;28;20450;-85
2022/11/16 15:11:13;;;;;;;0.20;0.10;;;;;;;;;;5039773;28;20601;-86
2022/11/16 15:13:39;;;;;;;0.20;0.10;;;;;;;;;;5027473;28;20045;-86
2022/11/16 15:16:23;;;;;;;0.20;0.10;;;;;;;;;;5037471;28;20359;-88
2022/11/16 15:18:57;;;;;;;0.20;0.10;;;;;;;;;;5028179;28;20045;-86
2022/11/16 15:21:26;;;;;;;0.20;0.10;;;;;;;;;;5040764;28;20049;-86
2022/11/16 15:23:52;;;;;;;0.20;0.10;;;;;;;;;;5040661;28;20049;-86
2022/11/16 15:26:19;;;;;;;0.20;0.10;;;;;;;;;;5041205;28;20048;-85
2022/11/16 15:28:46;;;;;;;0.20;0.10;;;;;;;;;;5039005;28;20407;-85
2022/11/16 15:31:12;;;;;;;0.20;0.10;;;;;;;;;;5028197;28;20041;-85
2022/11/16 15:33:40;;;;;;;0.20;0.10;;;;;;;;;;5025329;28;20375;-85
2022/11/16 15:36:31;;;;;;;0.20;0.10;;;;;;;;;;5037323;28;20119;-84
2022/11/16 15:38:58;;;;;;;0.20;0.10;;;;;;;;;;5026635;28;20072;-86
2022/11/16 15:41:26;;;;;;;0.20;0.10;;;;;;;;;;5020767;28;20538;-85
2022/11/16 15:43:54;;;;;;;0.20;0.10;;;;;;;;;;5038727;28;20040;-85